Time;durP1;ratioP1;P1;durP2;ratioP2;P2;SDS_P1;SDS_P2;PMS_P1;PMS_P2;Temp;Humidity;BMP_temperature;BMP_pressure;BME280_temperature;BME280_humidity;BME280_pressure;Samples;Min_cycle;Max_cycle;Signal;HPM_P1;HPM_P2
2021/08/05 00:01:49;;;;;;;3.00;2.70;;;21.60;54.30;;;;;;5040310;28;20206;-79
2021/08/05 00:04:15;;;;;;;3.13;2.83;;;21.60;54.30;;;;;;5023144;28;20175;-81
2021/08/05 00:06:41;;;;;;;2.80;2.60;;;21.60;54.30;;;;;;5040136;28;20155;-81
2021/08/05 00:09:07;;;;;;;3.17;2.88;;;21.60;54.30;;;;;;5039472;28;20250;-81
2021/08/05 00:11:36;;;;;;;3.22;2.90;;;21.60;54.30;;;;;;5022551;28;20159;-80
2021/08/05 00:14:02;;;;;;;2.90;2.60;;;21.60;54.30;;;;;;4989963;28;20231;-81
2021/08/05 00:16:32;;;;;;;3.13;2.83;;;21.60;54.30;;;;;;5023053;28;20201;-79
2021/08/05 00:19:02;;;;;;;2.95;2.65;;;21.60;54.30;;;;;;5074128;28;20206;-80
2021/08/05 00:21:28;;;;;;;3.35;3.05;;;21.60;54.20;;;;;;5074377;28;20215;-79
2021/08/05 00:23:54;;;;;;;2.97;2.67;;;21.70;54.30;;;;;;5022995;28;20166;-80
2021/08/05 00:26:25;;;;;;;3.30;3.00;;;21.60;54.20;;;;;;5040499;28;20219;-79
2021/08/05 00:28:55;;;;;;;2.80;2.60;;;21.60;54.20;;;;;;5057501;28;20633;-80
2021/08/05 00:31:27;;;;;;;2.85;2.55;;;21.60;54.20;;;;;;4989091;28;20247;-80
2021/08/05 00:33:57;;;;;;;2.95;2.65;;;21.60;54.30;;;;;;5056506;28;20571;-82
2021/08/05 00:36:28;;;;;;;3.08;2.78;;;21.60;54.20;;;;;;5057198;28;20203;-81
2021/08/05 00:38:58;;;;;;;3.10;2.80;;;21.60;54.10;;;;;;5057660;28;20187;-82
2021/08/05 00:41:28;;;;;;;3.00;2.70;;;21.60;54.30;;;;;;5057050;28;20218;-83
2021/08/05 00:43:54;;;;;;;3.17;2.88;;;21.60;54.30;;;;;;5040684;28;20186;-83
2021/08/05 00:46:20;;;;;;;3.20;2.90;;;21.60;54.30;;;;;;5022655;28;20184;-79
2021/08/05 00:48:46;;;;;;;3.17;2.88;;;21.60;54.30;;;;;;5022338;28;20166;-82
2021/08/05 00:51:16;;;;;;;3.35;3.05;;;21.60;54.90;;;;;;5040130;28;20167;-79
2021/08/05 00:53:47;;;;;;;3.13;2.83;;;21.60;54.30;;;;;;5040509;28;20676;-79
2021/08/05 00:56:17;;;;;;;3.47;2.90;;;21.60;54.30;;;;;;5057017;28;20186;-80
2021/08/05 00:58:43;;;;;;;2.92;2.63;;;21.60;54.30;;;;;;5056289;28;20189;-79
2021/08/05 01:01:16;;;;;;;2.83;2.55;;;21.60;54.30;;;;;;5039986;28;20183;-80
2021/08/05 01:03:43;;;;;;;3.20;2.90;;;21.60;54.40;;;;;;5039182;28;20182;-79
2021/08/05 01:06:25;;;;;;;3.45;3.15;;;21.60;54.30;;;;;;5022042;28;20159;-79
2021/08/05 01:09:13;;;;;;;3.00;2.70;;;21.60;54.30;;;;;;5066487;28;20223;-80
2021/08/05 01:11:50;;;;;;;3.30;3.00;;;21.60;54.30;;;;;;5001712;28;20244;-80
2021/08/05 01:14:21;;;;;;;3.00;2.70;;;21.60;54.30;;;;;;5052689;28;20540;-80
2021/08/05 01:16:52;;;;;;;3.03;2.75;;;21.60;55.00;;;;;;5053142;28;20563;-82
2021/08/05 01:19:28;;;;;;;3.20;2.90;;;21.60;54.30;;;;;;5036603;28;20190;-79
2021/08/05 01:22:10;;;;;;;3.22;2.92;;;21.60;54.30;;;;;;5035043;28;20215;-81
2021/08/05 01:24:37;;;;;;;3.00;2.75;;;21.60;54.30;;;;;;5001429;28;20167;-81
2021/08/05 01:27:03;;;;;;;3.03;2.72;;;21.60;54.30;;;;;;5002551;28;20168;-80
2021/08/05 01:29:32;;;;;;;3.10;2.80;;;21.60;54.30;;;;;;5018257;28;20168;-79
2021/08/05 01:31:58;;;;;;;3.13;2.83;;;21.60;54.30;;;;;;5001676;28;20606;-81
2021/08/05 01:34:30;;;;;;;3.15;2.72;;;21.60;54.90;;;;;;5001369;28;20211;-80
2021/08/05 01:36:56;;;;;;;2.92;2.63;;;21.60;54.40;;;;;;5052561;28;20239;-81
2021/08/05 01:39:22;;;;;;;2.80;2.53;;;21.60;54.30;;;;;;5017779;28;20175;-79
2021/08/05 01:41:49;;;;;;;3.00;2.70;;;21.60;54.30;;;;;;5001739;28;20199;-80
2021/08/05 01:44:15;;;;;;;3.30;2.97;;;21.60;54.30;;;;;;5017675;28;20185;-81
2021/08/05 01:46:49;;;;;;;2.92;2.63;;;21.60;54.30;;;;;;5003290;28;20167;-80
2021/08/05 01:49:15;;;;;;;2.95;2.75;;;21.60;54.30;;;;;;5056009;28;20560;-79
2021/08/05 01:51:41;;;;;;;3.10;2.80;;;21.60;54.30;;;;;;5022906;28;20164;-81
2021/08/05 01:54:12;;;;;;;3.00;2.70;;;21.60;54.40;;;;;;5004970;28;20242;-81
2021/08/05 01:56:49;;;;;;;3.20;2.90;;;21.60;54.40;;;;;;5056515;28;20183;-80
2021/08/05 01:59:18;;;;;;;3.30;3.00;;;21.60;54.30;;;;;;5056308;28;20244;-82
2021/08/05 02:01:44;;;;;;;3.15;2.85;;;21.60;54.40;;;;;;5073128;28;20246;-79
2021/08/05 02:04:28;;;;;;;3.47;3.17;;;21.60;54.40;;;;;;5021374;28;20164;-80
2021/08/05 02:07:09;;;;;;;3.05;2.75;;;21.60;54.40;;;;;;5021107;28;20159;-83
2021/08/05 02:09:42;;;;;;;3.00;2.70;;;21.60;54.40;;;;;;5021427;28;20231;-80
2021/08/05 02:12:08;;;;;;;3.13;2.83;;;21.50;54.30;;;;;;5005248;28;20167;-79
2021/08/05 02:14:34;;;;;;;3.20;2.90;;;21.60;54.40;;;;;;5021699;28;20645;-80
2021/08/05 02:17:00;;;;;;;3.40;3.10;;;21.60;54.40;;;;;;5021822;28;20168;-80
2021/08/05 02:19:31;;;;;;;3.20;2.90;;;21.60;54.40;;;;;;5021199;28;20626;-81
2021/08/05 02:22:01;;;;;;;3.10;2.80;;;21.60;54.40;;;;;;5040038;28;20253;-80
2021/08/05 02:24:30;;;;;;;3.03;2.72;;;21.60;54.40;;;;;;5056092;28;20179;-82
2021/08/05 02:27:01;;;;;;;3.10;2.80;;;21.60;54.40;;;;;;5022040;28;20155;-81
2021/08/05 02:29:27;;;;;;;3.10;2.80;;;21.60;54.40;;;;;;5039286;28;20579;-81
2021/08/05 02:31:58;;;;;;;2.95;2.65;;;21.60;54.40;;;;;;5022502;28;20160;-79
2021/08/05 02:34:24;;;;;;;3.17;2.88;;;21.60;54.40;;;;;;5056186;28;20199;-79
2021/08/05 02:36:51;;;;;;;3.10;2.80;;;21.60;54.40;;;;;;5020797;28;20159;-79
2021/08/05 02:39:21;;;;;;;2.83;2.63;;;21.50;54.40;;;;;;5021158;28;20160;-80
2021/08/05 02:41:51;;;;;;;3.35;2.95;;;21.50;54.30;;;;;;5055861;28;20762;-81
2021/08/05 02:44:17;;;;;;;3.10;2.80;;;21.60;54.40;;;;;;5055134;28;20180;-79
2021/08/05 02:46:48;;;;;;;3.35;2.90;;;21.60;54.50;;;;;;5020536;28;20559;-82
2021/08/05 02:49:15;;;;;;;3.17;2.88;;;21.60;54.40;;;;;;5071984;28;20184;-79
2021/08/05 02:51:42;;;;;;;3.13;2.83;;;21.60;54.40;;;;;;5020922;28;20526;-80
2021/08/05 02:54:13;;;;;;;3.08;2.78;;;21.50;54.40;;;;;;5020569;28;20247;-80
2021/08/05 02:56:44;;;;;;;3.05;2.75;;;21.60;54.40;;;;;;5055667;28;20205;-80
2021/08/05 02:59:18;;;;;;;2.83;2.55;;;21.60;54.40;;;;;;5071958;28;20179;-80
2021/08/05 03:01:48;;;;;;;3.13;2.83;;;21.60;54.50;;;;;;5055885;28;20701;-84
2021/08/05 03:04:20;;;;;;;3.22;2.92;;;21.60;54.50;;;;;;5072154;28;20194;-82
2021/08/05 03:06:46;;;;;;;3.30;3.00;;;21.60;54.50;;;;;;5055181;28;20545;-80
2021/08/05 03:09:13;;;;;;;3.10;2.80;;;21.60;54.40;;;;;;5004200;28;20231;-81
2021/08/05 03:11:43;;;;;;;3.03;2.72;;;21.60;54.50;;;;;;5020302;28;20163;-80
2021/08/05 03:14:13;;;;;;;2.97;2.67;;;21.60;54.40;;;;;;5038049;28;20247;-82
2021/08/05 03:16:44;;;;;;;2.90;2.70;;;21.60;54.50;;;;;;5055583;28;20180;-80
2021/08/05 03:19:10;;;;;;;3.30;3.00;;;21.60;54.40;;;;;;5038722;28;20235;-81
2021/08/05 03:21:39;;;;;;;3.00;2.70;;;21.60;54.50;;;;;;5004966;28;20199;-82
2021/08/05 03:24:05;;;;;;;3.22;2.92;;;21.60;54.50;;;;;;5039062;28;20248;-81
2021/08/05 03:26:31;;;;;;;3.20;2.90;;;21.60;54.50;;;;;;5006199;28;20175;-80
2021/08/05 03:29:01;;;;;;;3.10;2.80;;;21.60;54.50;;;;;;5004798;28;20220;-80
2021/08/05 03:31:27;;;;;;;3.10;2.80;;;21.50;54.40;;;;;;5073040;28;20233;-81
2021/08/05 03:33:57;;;;;;;2.85;2.55;;;21.60;54.50;;;;;;5024401;28;20160;-79
2021/08/05 03:36:23;;;;;;;3.08;2.78;;;21.50;54.40;;;;;;5057544;28;20199;-79
2021/08/05 03:38:49;;;;;;;3.20;2.55;;;21.60;54.40;;;;;;5006673;28;20172;-79
2021/08/05 03:41:21;;;;;;;3.08;2.75;;;21.50;54.40;;;;;;5006757;28;20221;-79
2021/08/05 03:43:47;;;;;;;2.70;2.50;;;21.60;54.40;;;;;;5041395;28;20194;-79
2021/08/05 03:46:13;;;;;;;3.10;2.80;;;21.60;54.40;;;;;;5006546;28;20541;-79
2021/08/05 03:48:39;;;;;;;3.20;2.90;;;21.60;54.40;;;;;;5007093;28;20273;-79
2021/08/05 03:51:10;;;;;;;3.30;3.00;;;21.60;54.50;;;;;;5023190;28;20174;-79
2021/08/05 03:53:40;;;;;;;3.10;2.80;;;21.60;54.40;;;;;;5042168;28;20557;-79
2021/08/05 03:56:06;;;;;;;3.13;2.83;;;21.60;54.40;;;;;;5042093;28;20219;-79
2021/08/05 03:58:36;;;;;;;3.10;2.80;;;21.50;54.40;;;;;;5006740;28;20168;-79
2021/08/05 04:01:06;;;;;;;3.10;2.80;;;21.60;54.40;;;;;;5041606;28;20739;-79
2021/08/05 04:03:32;;;;;;;3.15;2.85;;;21.60;54.40;;;;;;5058374;28;20180;-79
2021/08/05 04:06:03;;;;;;;2.60;2.40;;;21.60;54.40;;;;;;5006951;28;20324;-79
2021/08/05 04:08:29;;;;;;;3.10;2.80;;;21.60;54.30;;;;;;5057076;28;20243;-80
2021/08/05 04:10:55;;;;;;;3.30;3.00;;;21.60;54.30;;;;;;5007063;28;20193;-79
2021/08/05 04:13:25;;;;;;;3.00;2.70;;;21.60;54.20;;;;;;5022248;28;20239;-80
2021/08/05 04:15:52;;;;;;;3.00;2.70;;;21.70;54.20;;;;;;5057574;28;20562;-80
2021/08/05 04:18:19;;;;;;;3.03;2.72;;;21.60;54.30;;;;;;5006560;28;20183;-79
2021/08/05 04:20:49;;;;;;;3.55;2.92;;;21.70;54.20;;;;;;5023255;28;20199;-79
2021/08/05 04:23:20;;;;;;;3.10;2.83;;;21.70;54.10;;;;;;5058277;28;20199;-80
2021/08/05 04:25:50;;;;;;;3.05;2.65;;;21.80;54.00;;;;;;5041242;28;20183;-79
2021/08/05 04:28:17;;;;;;;2.65;2.45;;;21.80;54.60;;;;;;4989924;28;20187;-79
2021/08/05 04:30:48;;;;;;;2.70;2.50;;;21.80;53.90;;;;;;5024228;28;20158;-79
2021/08/05 04:33:14;;;;;;;2.80;2.60;;;21.90;53.80;;;;;;5040821;28;20183;-79
2021/08/05 04:35:44;;;;;;;2.85;2.58;;;21.90;53.70;;;;;;5006906;28;20163;-79
2021/08/05 04:38:15;;;;;;;2.65;2.45;;;21.90;53.80;;;;;;5040936;28;20187;-79
2021/08/05 04:40:42;;;;;;;3.00;2.70;;;21.90;53.90;;;;;;5058269;28;20203;-79
2021/08/05 04:43:12;;;;;;;3.25;2.63;;;22.00;53.90;;;;;;5006494;28;20180;-79
2021/08/05 04:45:44;;;;;;;2.70;2.50;;;21.90;53.70;;;;;;5057826;28;20699;-79
2021/08/05 04:48:14;;;;;;;2.65;2.45;;;21.90;53.80;;;;;;5040306;28;20664;-79
2021/08/05 04:50:42;;;;;;;2.90;2.60;;;22.00;54.00;;;;;;5057596;28;20187;-79
2021/08/05 04:53:16;;;;;;;3.03;2.75;;;22.00;53.80;;;;;;5022494;28;20163;-79
2021/08/05 04:55:42;;;;;;;2.60;2.40;;;22.00;53.60;;;;;;5056037;28;20186;-79
2021/08/05 04:58:08;;;;;;;2.58;2.38;;;22.00;53.50;;;;;;5022090;28;20148;-79
2021/08/05 05:00:37;;;;;;;2.70;2.50;;;22.00;53.50;;;;;;5006061;28;20167;-79
2021/08/05 05:03:03;;;;;;;2.90;2.60;;;22.10;53.70;;;;;;5006134;28;20171;-79
2021/08/05 05:05:33;;;;;;;2.70;2.50;;;22.00;53.70;;;;;;5023132;28;20163;-79
2021/08/05 05:08:12;;;;;;;2.72;2.53;;;22.00;53.60;;;;;;5040760;28;20183;-79
2021/08/05 05:10:38;;;;;;;2.40;2.20;;;22.10;53.40;;;;;;5022377;28;20187;-79
2021/08/05 05:13:09;;;;;;;2.50;2.30;;;22.00;53.50;;;;;;5022775;28;20168;-79
2021/08/05 05:15:35;;;;;;;2.33;2.13;;;22.00;53.60;;;;;;5057291;28;20227;-79
2021/08/05 05:18:01;;;;;;;2.75;2.55;;;22.00;53.50;;;;;;5006020;28;20189;-79
2021/08/05 05:20:34;;;;;;;2.50;2.30;;;22.10;53.50;;;;;;5007822;28;20596;-79
2021/08/05 05:23:01;;;;;;;2.83;2.60;;;22.10;53.60;;;;;;5060637;28;20247;-79
2021/08/05 05:25:29;;;;;;;2.47;2.28;;;22.00;53.60;;;;;;5005742;28;20160;-78
2021/08/05 05:27:57;;;;;;;2.63;2.42;;;22.10;53.70;;;;;;5056488;28;20313;-78
2021/08/05 05:30:27;;;;;;;2.67;2.47;;;22.10;53.50;;;;;;5040291;28;20612;-78
2021/08/05 05:32:57;;;;;;;3.20;2.30;;;22.10;53.60;;;;;;5041145;28;20210;-78
2021/08/05 05:35:26;;;;;;;2.67;2.35;;;22.10;53.50;;;;;;5041267;28;20587;-78
2021/08/05 05:37:56;;;;;;;2.53;2.33;;;22.10;53.50;;;;;;4990218;28;20170;-78
2021/08/05 05:40:23;;;;;;;3.38;2.60;;;22.20;54.10;;;;;;5057646;28;20207;-80
2021/08/05 05:42:53;;;;;;;2.45;2.25;;;22.10;54.20;;;;;;5009912;28;20213;-81
2021/08/05 05:45:19;;;;;;;2.30;2.10;;;22.20;53.50;;;;;;4951243;28;20695;-78
2021/08/05 05:47:49;;;;;;;2.28;2.08;;;22.20;53.40;;;;;;4951176;28;20256;-78
2021/08/05 05:50:20;;;;;;;2.28;2.08;;;22.20;53.50;;;;;;5018627;28;20311;-80
2021/08/05 05:52:47;;;;;;;2.60;2.40;;;22.10;53.40;;;;;;5031159;28;20280;-78
2021/08/05 05:55:14;;;;;;;3.58;2.63;;;22.20;53.30;;;;;;4951071;28;20272;-79
2021/08/05 05:57:40;;;;;;;2.83;2.40;;;22.30;53.30;;;;;;4985054;28;20169;-78
2021/08/05 06:00:07;;;;;;;2.50;2.30;;;22.30;53.40;;;;;;4984818;28;20181;-79
2021/08/05 06:02:33;;;;;;;3.05;2.53;;;22.20;53.30;;;;;;4968718;28;20199;-79
2021/08/05 06:04:59;;;;;;;2.92;2.63;;;22.30;53.50;;;;;;4968486;28;20180;-79
2021/08/05 06:07:29;;;;;;;3.25;2.30;;;22.30;53.60;;;;;;4952579;28;20161;-78
2021/08/05 06:09:55;;;;;;;2.60;2.40;;;22.30;53.80;;;;;;5067792;28;20232;-78
2021/08/05 06:12:20;;;;;;;2.88;2.42;;;22.30;54.00;;;;;;4972743;28;20256;-78
2021/08/05 06:14:48;;;;;;;2.20;2.03;;;22.40;54.00;;;;;;4988355;28;20176;-78
2021/08/05 06:17:14;;;;;;;2.33;2.13;;;22.30;53.90;;;;;;5007250;28;20490;-80
2021/08/05 06:19:45;;;;;;;2.58;2.38;;;22.30;54.40;;;;;;5044668;28;20653;-79
2021/08/05 06:22:11;;;;;;;2.45;2.17;;;22.30;53.70;;;;;;5010647;28;20685;-80
2021/08/05 06:24:38;;;;;;;2.92;2.63;;;22.30;53.80;;;;;;5044768;28;20170;-80
2021/08/05 06:27:12;;;;;;;2.47;2.28;;;22.30;53.60;;;;;;5027350;28;20159;-80
2021/08/05 06:29:38;;;;;;;2.50;2.30;;;22.30;54.20;;;;;;5079511;28;20196;-79
2021/08/05 06:32:06;;;;;;;2.72;2.53;;;22.40;53.70;;;;;;5041895;28;20167;-84
2021/08/05 06:34:32;;;;;;;2.50;2.25;;;22.40;53.50;;;;;;5032828;28;20163;-80
2021/08/05 06:36:59;;;;;;;3.58;2.33;;;22.40;53.30;;;;;;5032572;28;20151;-84
2021/08/05 06:39:25;;;;;;;2.42;2.22;;;22.30;53.30;;;;;;5032798;28;20155;-82
2021/08/05 06:41:51;;;;;;;2.30;2.10;;;22.30;53.60;;;;;;5033189;28;20190;-83
2021/08/05 06:44:16;;;;;;;2.65;2.20;;;22.30;53.70;;;;;;5032850;28;20175;-83
2021/08/05 06:46:42;;;;;;;2.28;2.08;;;22.30;53.70;;;;;;5015359;28;20155;-84
2021/08/05 06:49:15;;;;;;;2.20;2.00;;;22.30;53.80;;;;;;5037403;28;20151;-82
2021/08/05 06:51:46;;;;;;;2.45;2.25;;;22.30;53.70;;;;;;4976390;28;20193;-85
2021/08/05 06:54:15;;;;;;;2.40;2.20;;;22.40;53.50;;;;;;5006239;28;20222;-82
2021/08/05 06:56:41;;;;;;;2.33;2.13;;;22.30;53.70;;;;;;4987286;28;20179;-86
2021/08/05 06:59:13;;;;;;;2.30;2.10;;;22.40;53.50;;;;;;5041406;28;20170;-81
2021/08/05 07:01:43;;;;;;;3.15;2.20;;;22.40;53.40;;;;;;4976614;28;20679;-81
2021/08/05 07:04:14;;;;;;;2.78;2.30;;;22.40;53.40;;;;;;4994808;28;20212;-79
2021/08/05 07:06:45;;;;;;;2.33;2.00;;;22.40;53.40;;;;;;5097229;28;20186;-80
2021/08/05 07:09:11;;;;;;;2.30;2.10;;;22.40;53.30;;;;;;4974090;28;20598;-80
2021/08/05 07:11:37;;;;;;;2.35;2.15;;;22.50;53.30;;;;;;5008280;28;20657;-80
2021/08/05 07:14:03;;;;;;;2.40;2.20;;;22.40;53.30;;;;;;5008281;28;20167;-80
2021/08/05 07:16:33;;;;;;;2.35;2.15;;;22.40;53.10;;;;;;5008184;28;20168;-79
2021/08/05 07:19:04;;;;;;;2.47;2.22;;;22.40;53.30;;;;;;5059438;28;20668;-80
2021/08/05 07:21:30;;;;;;;2.30;2.10;;;22.40;53.20;;;;;;4974741;28;20573;-80
2021/08/05 07:23:56;;;;;;;2.10;1.90;;;22.30;53.30;;;;;;5024282;28;20641;-79
2021/08/05 07:26:23;;;;;;;2.47;2.28;;;22.40;53.20;;;;;;5007987;28;20251;-80
2021/08/05 07:28:49;;;;;;;2.17;2.00;;;22.30;53.30;;;;;;5008242;28;20569;-80
2021/08/05 07:31:20;;;;;;;4.22;2.08;;;22.40;53.30;;;;;;5024393;28;20171;-80
2021/08/05 07:33:51;;;;;;;2.40;2.15;;;22.50;53.10;;;;;;4991409;28;20183;-81
2021/08/05 07:36:21;;;;;;;2.17;2.00;;;22.50;53.00;;;;;;4991993;28;20197;-80
2021/08/05 07:38:52;;;;;;;2.17;1.98;;;22.50;53.00;;;;;;4991748;28;20183;-77
2021/08/05 07:41:21;;;;;;;3.08;2.10;;;22.40;53.00;;;;;;4991452;28;20214;-80
2021/08/05 07:43:52;;;;;;;3.47;1.92;;;22.40;53.00;;;;;;5059015;28;20268;-80
2021/08/05 07:46:23;;;;;;;3.10;2.38;;;22.50;52.90;;;;;;5075092;28;20186;-80
2021/08/05 07:48:51;;;;;;;2.25;1.73;;;22.50;52.90;;;;;;4974168;28;20180;-80
2021/08/05 07:51:19;;;;;;;3.17;2.10;;;22.50;52.90;;;;;;4975352;28;20236;-80
2021/08/05 07:53:47;;;;;;;3.75;2.00;;;22.60;52.80;;;;;;4991155;28;20191;-80
2021/08/05 07:56:15;;;;;;;3.42;2.40;;;22.50;52.90;;;;;;5058618;28;20222;-80
2021/08/05 07:58:45;;;;;;;3.70;2.08;;;22.50;53.00;;;;;;5058550;28;20183;-80
2021/08/05 08:01:16;;;;;;;2.88;2.20;;;22.60;52.80;;;;;;5006503;28;20246;-80
2021/08/05 08:03:48;;;;;;;2.65;2.10;;;22.60;52.70;;;;;;5057819;28;20290;-80
2021/08/05 08:06:15;;;;;;;5.40;2.15;;;22.50;52.90;;;;;;5042071;28;20179;-80
2021/08/05 08:08:44;;;;;;;4.03;2.55;;;22.40;53.00;;;;;;5060357;28;20207;-80
2021/08/05 08:11:12;;;;;;;2.53;2.30;;;22.50;53.00;;;;;;5022610;28;20195;-79
2021/08/05 08:13:39;;;;;;;4.07;2.10;;;22.40;53.00;;;;;;5023554;28;20155;-80
2021/08/05 08:16:09;;;;;;;4.95;2.08;;;22.50;52.90;;;;;;5074632;28;20195;-79
2021/08/05 08:18:36;;;;;;;3.35;1.95;;;22.50;52.90;;;;;;5057552;28;20283;-79
2021/08/05 08:21:04;;;;;;;2.17;1.65;;;22.50;53.00;;;;;;5073319;28;20222;-79
2021/08/05 08:23:31;;;;;;;3.22;2.20;;;22.40;52.90;;;;;;5004967;28;20184;-80
2021/08/05 08:25:58;;;;;;;2.28;2.05;;;22.40;53.10;;;;;;5005440;28;20188;-80
2021/08/05 08:28:26;;;;;;;4.15;2.00;;;22.40;53.10;;;;;;5074347;28;20188;-79
2021/08/05 08:30:53;;;;;;;2.20;1.90;;;22.40;52.80;;;;;;5075553;28;20274;-80
2021/08/05 08:33:20;;;;;;;4.50;2.30;;;22.50;52.60;;;;;;5074666;28;20195;-80
2021/08/05 08:35:47;;;;;;;2.25;1.90;;;22.50;52.20;;;;;;5075678;28;20183;-80
2021/08/05 08:38:13;;;;;;;6.00;2.10;;;22.50;52.60;;;;;;5070213;28;20206;-82
2021/08/05 08:40:38;;;;;;;2.53;2.25;;;22.60;52.40;;;;;;5006881;28;20167;-81
2021/08/05 08:43:17;;;;;;;3.05;2.10;;;22.50;52.40;;;;;;5018658;28;20167;-83
2021/08/05 08:45:43;;;;;;;3.25;2.30;;;22.60;52.50;;;;;;5019104;28;20256;-82
2021/08/05 08:48:14;;;;;;;2.22;2.03;;;22.50;52.60;;;;;;5019173;28;20197;-80
2021/08/05 08:50:44;;;;;;;2.72;2.05;;;22.50;52.60;;;;;;5023706;28;20183;-79
2021/08/05 08:53:16;;;;;;;3.60;2.20;;;22.60;52.40;;;;;;5023684;28;20198;-80
2021/08/05 08:55:46;;;;;;;2.33;2.10;;;22.50;52.60;;;;;;5000332;28;20175;-82
2021/08/05 08:58:16;;;;;;;4.25;2.10;;;22.50;52.70;;;;;;4979088;28;20211;-82
2021/08/05 09:00:43;;;;;;;4.18;2.65;;;22.50;52.70;;;;;;4973941;28;20187;-83
2021/08/05 09:03:13;;;;;;;2.33;2.10;;;22.40;52.70;;;;;;5027979;28;20155;-83
2021/08/05 09:05:44;;;;;;;4.35;2.20;;;22.50;52.70;;;;;;5079175;28;20195;-83
2021/08/05 09:08:09;;;;;;;2.88;2.30;;;22.50;52.70;;;;;;5080764;28;20183;-82
2021/08/05 09:10:35;;;;;;;3.97;2.35;;;22.50;52.70;;;;;;5020055;28;20524;-81
2021/08/05 09:13:07;;;;;;;3.28;2.00;;;22.50;52.60;;;;;;5002318;28;20316;-82
2021/08/05 09:15:39;;;;;;;2.80;2.25;;;22.50;52.60;;;;;;5071644;28;20185;-82
2021/08/05 09:18:22;;;;;;;2.33;2.13;;;22.50;52.60;;;;;;5036119;28;20164;-81
2021/08/05 09:21:18;;;;;;;3.55;2.40;;;22.60;52.60;;;;;;5038523;28;20656;-83
2021/08/05 09:24:06;;;;;;;2.35;2.15;;;22.60;52.40;;;;;;5093041;28;20232;-81
2021/08/05 09:26:45;;;;;;;4.43;2.20;;;22.60;52.40;;;;;;5020240;28;20197;-82
2021/08/05 09:29:22;;;;;;;2.38;2.10;;;22.60;52.30;;;;;;5017449;28;20180;-81
2021/08/05 09:32:01;;;;;;;2.55;2.25;;;22.60;52.20;;;;;;5003972;28;20594;-80
2021/08/05 09:34:45;;;;;;;2.40;2.20;;;22.60;52.20;;;;;;5005435;28;20219;-80
2021/08/05 09:37:22;;;;;;;4.68;2.20;;;22.60;52.10;;;;;;5007797;28;20175;-79
2021/08/05 09:39:55;;;;;;;2.55;1.98;;;22.60;51.90;;;;;;5008118;28;20224;-80
2021/08/05 09:42:21;;;;;;;3.15;2.28;;;22.60;51.90;;;;;;5076832;27;20232;-79
2021/08/05 09:45:04;;;;;;;2.35;2.15;;;22.60;51.90;;;;;;5068394;28;20180;-79
2021/08/05 09:47:39;;;;;;;3.00;2.30;;;22.60;51.90;;;;;;5067907;28;20192;-79
2021/08/05 09:50:09;;;;;;;3.78;2.30;;;22.60;51.90;;;;;;4965558;28;20186;-79
2021/08/05 09:52:39;;;;;;;1.85;1.75;;;22.60;52.00;;;;;;5001588;28;20346;-79
2021/08/05 09:55:10;;;;;;;2.22;2.00;;;22.70;51.90;;;;;;4967467;28;20602;-80
2021/08/05 09:57:42;;;;;;;3.10;2.13;;;22.70;51.90;;;;;;4982876;28;20188;-81
2021/08/05 10:00:17;;;;;;;2.38;1.92;;;22.80;51.80;;;;;;4968079;28;20211;-79
2021/08/05 10:02:48;;;;;;;4.03;2.35;;;22.80;51.80;;;;;;4999730;28;20710;-80
2021/08/05 10:05:21;;;;;;;2.92;2.20;;;22.70;51.70;;;;;;4997709;28;20275;-83
2021/08/05 10:07:50;;;;;;;3.13;1.88;;;22.70;51.80;;;;;;4986002;28;20184;-80
2021/08/05 10:10:19;;;;;;;2.42;2.22;;;22.70;51.70;;;;;;4985931;28;20228;-83
2021/08/05 10:12:54;;;;;;;3.38;2.05;;;22.70;51.80;;;;;;4980557;28;20185;-86
2021/08/05 10:15:20;;;;;;;2.85;2.35;;;22.70;51.60;;;;;;5021318;28;20241;-82
2021/08/05 10:17:53;;;;;;;2.80;2.50;;;22.70;51.60;;;;;;4946542;28;20206;-85
2021/08/05 10:20:20;;;;;;;3.28;2.60;;;22.70;51.40;;;;;;4966814;28;20697;-83
2021/08/05 10:22:48;;;;;;;3.45;2.33;;;22.70;51.30;;;;;;5022651;28;20245;-82
2021/08/05 10:25:25;;;;;;;2.55;2.25;;;22.70;51.50;;;;;;5006031;28;20159;-79
2021/08/05 10:28:01;;;;;;;2.42;2.20;;;22.60;51.50;;;;;;5096896;28;20284;-80
2021/08/05 10:30:28;;;;;;;3.35;2.40;;;22.80;51.30;;;;;;5014734;28;20166;-80
2021/08/05 10:32:57;;;;;;;2.40;2.20;;;22.80;51.20;;;;;;5031559;28;20165;-79
2021/08/05 10:35:24;;;;;;;3.13;2.40;;;22.90;51.10;;;;;;5070116;28;20171;-80
2021/08/05 10:37:51;;;;;;;2.92;2.28;;;22.90;51.00;;;;;;5041646;28;20167;-79
2021/08/05 10:40:19;;;;;;;2.40;2.20;;;22.80;51.10;;;;;;5030545;28;20162;-79
2021/08/05 10:42:52;;;;;;;2.70;2.50;;;22.80;51.20;;;;;;5014345;28;20225;-80
2021/08/05 10:45:22;;;;;;;2.30;2.10;;;22.80;51.10;;;;;;5082114;28;20227;-79
2021/08/05 10:47:53;;;;;;;2.40;2.20;;;22.80;51.10;;;;;;5030561;28;20169;-79
2021/08/05 10:50:22;;;;;;;3.08;2.60;;;22.80;51.20;;;;;;5026075;28;20539;-79
2021/08/05 10:52:55;;;;;;;2.50;2.30;;;22.80;51.30;;;;;;5024848;28;20186;-79
2021/08/05 10:55:26;;;;;;;2.17;1.98;;;22.80;51.30;;;;;;5023530;28;20194;-80
2021/08/05 10:58:17;;;;;;;3.22;2.30;;;22.80;51.30;;;;;;5003226;28;20192;-80
2021/08/05 11:00:53;;;;;;;2.35;2.15;;;22.80;51.20;;;;;;5088480;28;20183;-79
2021/08/05 11:03:40;;;;;;;2.45;2.25;;;22.90;51.00;;;;;;5087005;28;20168;-81
2021/08/05 11:06:07;;;;;;;3.85;2.45;;;22.80;50.90;;;;;;5107246;28;20683;-80
2021/08/05 11:08:33;;;;;;;2.30;2.10;;;22.90;51.00;;;;;;5091390;28;20204;-80
2021/08/05 11:11:30;;;;;;;3.72;2.33;;;22.90;50.90;;;;;;5092095;28;20696;-78
2021/08/05 11:14:34;;;;;;;2.80;2.40;;;22.90;51.00;;;;;;5082145;28;20185;-79
2021/08/05 11:17:02;;;;;;;2.28;2.08;;;22.90;51.00;;;;;;5028043;28;20206;-79
2021/08/05 11:19:35;;;;;;;4.20;2.35;;;22.90;51.00;;;;;;5008828;28;20163;-79
2021/08/05 11:22:35;;;;;;;2.97;2.13;;;22.90;51.00;;;;;;4991043;28;20202;-79
2021/08/05 11:25:06;;;;;;;3.00;2.35;;;22.90;51.00;;;;;;5024164;28;20250;-78
2021/08/05 11:27:31;;;;;;;2.33;2.13;;;22.90;50.90;;;;;;5072401;28;20249;-79
2021/08/05 11:30:22;;;;;;;2.55;2.35;;;23.00;50.80;;;;;;5042827;28;20196;-81
2021/08/05 11:32:48;;;;;;;3.42;2.28;;;22.90;50.80;;;;;;5080613;28;20182;-82
2021/08/05 11:35:14;;;;;;;2.85;2.42;;;22.90;50.90;;;;;;5037086;28;20585;-79
2021/08/05 11:38:10;;;;;;;6.13;2.30;;;22.90;51.00;;;;;;5037481;28;20153;-79
2021/08/05 11:40:41;;;;;;;2.40;2.03;;;22.80;51.20;;;;;;5019606;28;20177;-83
2021/08/05 11:43:30;;;;;;;2.70;2.05;;;22.80;51.10;;;;;;5035546;28;20167;-85
2021/08/05 11:46:22;;;;;;;4.65;2.00;;;22.70;51.00;;;;;;4989088;28;20208;-82
2021/08/05 11:48:49;;;;;;;3.10;2.00;;;22.70;51.10;;;;;;5034183;28;20170;-82
2021/08/05 11:51:14;;;;;;;2.15;1.73;;;22.70;51.30;;;;;;5032353;28;20537;-83
2021/08/05 11:53:42;;;;;;;3.25;2.10;;;22.70;51.20;;;;;;5031673;28;20171;-79
2021/08/05 11:56:11;;;;;;;2.45;1.85;;;22.70;51.20;;;;;;5015527;28;20151;-81
2021/08/05 11:58:42;;;;;;;2.97;1.80;;;22.70;51.20;;;;;;5014202;28;20163;-85
2021/08/05 12:01:12;;;;;;;2.65;2.08;;;22.70;51.00;;;;;;5014047;28;20198;-84
2021/08/05 12:03:39;;;;;;;3.85;1.88;;;22.70;51.00;;;;;;5013892;28;20614;-84
2021/08/05 12:06:04;;;;;;;2.35;1.80;;;22.70;50.80;;;;;;5029983;28;20163;-83
2021/08/05 12:08:30;;;;;;;3.22;1.80;;;22.70;50.50;;;;;;5016653;28;20673;-81
2021/08/05 12:10:58;;;;;;;3.95;1.90;;;22.80;50.30;;;;;;5051727;28;20162;-86
2021/08/05 12:13:25;;;;;;;2.20;1.90;;;22.80;50.10;;;;;;5034153;28;20241;-81
2021/08/05 12:15:55;;;;;;;3.13;1.83;;;22.80;50.20;;;;;;5051703;28;20185;-82
2021/08/05 12:18:22;;;;;;;3.15;1.70;;;22.70;50.30;;;;;;5018361;28;20520;-81
2021/08/05 12:20:50;;;;;;;3.13;1.85;;;22.80;50.20;;;;;;5051700;28;20242;-81
2021/08/05 12:23:20;;;;;;;2.33;1.92;;;22.80;50.30;;;;;;5034099;28;20553;-83
2021/08/05 12:25:51;;;;;;;2.85;1.80;;;22.80;50.40;;;;;;5017612;28;20576;-84
2021/08/05 12:28:19;;;;;;;1.85;1.73;;;22.70;50.30;;;;;;5017745;28;20201;-80
2021/08/05 12:30:55;;;;;;;3.78;1.55;;;22.70;50.10;;;;;;5032866;28;20166;-86
2021/08/05 12:33:23;;;;;;;2.65;1.85;;;22.70;49.70;;;;;;5085459;28;20189;-81
2021/08/05 12:36:18;;;;;;;1.80;1.70;;;22.70;49.60;;;;;;5017784;28;20158;-79
2021/08/05 12:38:50;;;;;;;4.43;1.70;;;22.60;49.60;;;;;;5036058;28;20170;-84
2021/08/05 12:41:28;;;;;;;2.95;1.60;;;22.70;49.40;;;;;;5034205;28;20208;-79
2021/08/05 12:43:57;;;;;;;1.70;1.60;;;22.70;49.40;;;;;;5019384;28;20177;-80
2021/08/05 12:46:27;;;;;;;2.38;1.70;;;22.70;49.20;;;;;;5001013;28;20253;-84
2021/08/05 12:48:55;;;;;;;1.63;1.35;;;22.80;49.00;;;;;;5068629;28;20182;-82
2021/08/05 12:51:20;;;;;;;1.98;1.67;;;22.70;48.90;;;;;;5051515;28;20165;-81
2021/08/05 12:53:47;;;;;;;1.48;1.38;;;22.70;48.90;;;;;;5051429;28;20158;-80
2021/08/05 12:56:13;;;;;;;1.70;1.55;;;22.70;48.60;;;;;;5033975;28;20162;-83
2021/08/05 12:58:39;;;;;;;2.20;2.00;;;22.70;48.50;;;;;;5052009;28;20613;-84
2021/08/05 13:01:18;;;;;;;1.90;1.77;;;22.70;48.70;;;;;;5033971;28;20273;-82
2021/08/05 13:03:45;;;;;;;2.00;1.88;;;22.60;48.30;;;;;;5001333;28;20636;-82